createdAt,value
2023-03-18T00:01:11.747Z,66.98
2023-03-18T00:03:39.441Z,66.81
2023-03-18T00:06:12.495Z,66.83
2023-03-18T00:08:41.418Z,66.69
2023-03-18T00:11:11.311Z,66.43
2023-03-18T00:13:39.759Z,66.65
2023-03-18T00:16:10.512Z,66.53
2023-03-18T00:18:39.378Z,66.57
2023-03-18T00:21:06.481Z,66.21
2023-03-18T00:23:34.613Z,65.91
2023-03-18T00:26:02.550Z,65.83
2023-03-18T00:28:31.550Z,65.71
2023-03-18T00:31:13.861Z,65.25
2023-03-18T00:33:46.052Z,65.26
2023-03-18T00:36:15.502Z,65.01
2023-03-18T00:38:44.122Z,64.96
2023-03-18T00:41:11.806Z,65.13
2023-03-18T00:43:52.613Z,65.20
2023-03-18T00:46:22.402Z,64.88
2023-03-18T00:48:49.494Z,64.78
2023-03-18T00:51:18.473Z,64.86
2023-03-18T00:53:48.680Z,64.97
2023-03-18T00:56:17.274Z,64.67
2023-03-18T00:58:45.451Z,64.93
2023-03-18T01:01:13.969Z,63.91
2023-03-18T01:03:43.253Z,64.09
2023-03-18T01:06:12.987Z,64.15
2023-03-18T01:08:42.099Z,64.55
2023-03-18T01:11:11.224Z,64.36
2023-03-18T01:13:38.934Z,64.36
2023-03-18T01:16:09.391Z,64.00
2023-03-18T01:18:37.779Z,63.46
2023-03-18T01:21:05.113Z,63.57
2023-03-18T01:23:36.745Z,63.79
2023-03-18T01:26:04.769Z,63.78
2023-03-18T01:28:32.736Z,63.71
2023-03-18T01:31:01.542Z,63.50
2023-03-18T01:33:30.130Z,63.43
2023-03-18T01:36:00.433Z,63.74
2023-03-18T01:38:32.964Z,63.77
2023-03-18T01:41:08.943Z,63.89
2023-03-18T01:43:40.983Z,63.91
2023-03-18T01:46:35.749Z,63.61
2023-03-18T01:49:10.426Z,64.08
2023-03-18T01:51:40.889Z,63.50
2023-03-18T01:54:09.282Z,63.32
2023-03-18T01:56:39.534Z,63.24
2023-03-18T01:59:09.614Z,63.23
2023-03-18T02:01:55.130Z,63.72
2023-03-18T02:04:29.472Z,63.03
2023-03-18T02:07:00.659Z,63.12
2023-03-18T02:09:27.818Z,63.28
2023-03-18T02:11:57.544Z,63.29
2023-03-18T02:14:27.187Z,63.50
2023-03-18T02:17:06.522Z,63.42
2023-03-18T02:19:50.274Z,63.07
2023-03-18T02:22:33.333Z,63.41
2023-03-18T02:25:20.142Z,63.01
2023-03-18T02:27:54.862Z,63.27
2023-03-18T02:30:27.868Z,63.43
2023-03-18T02:32:58.130Z,63.51
2023-03-18T02:35:26.991Z,63.59
2023-03-18T02:37:54.473Z,63.36
2023-03-18T02:40:26.030Z,63.48
2023-03-18T02:42:53.672Z,63.44
2023-03-18T02:45:34.024Z,63.40
2023-03-18T02:48:15.398Z,63.59
2023-03-18T02:50:43.276Z,63.24
2023-03-18T02:53:15.373Z,63.50
2023-03-18T02:55:43.216Z,63.56
2023-03-18T02:58:11.807Z,63.78
2023-03-18T03:00:39.946Z,63.58
2023-03-18T03:03:07.901Z,63.43
2023-03-18T03:05:36.342Z,63.80
2023-03-18T03:08:04.318Z,63.78
2023-03-18T03:10:33.957Z,63.34
2023-03-18T03:13:01.760Z,63.42
2023-03-18T03:15:30.612Z,63.42
2023-03-18T03:18:00.459Z,63.17
2023-03-18T03:20:29.711Z,62.99
2023-03-18T03:22:58.152Z,62.99
2023-03-18T03:25:27.745Z,63.21
2023-03-18T03:27:56.310Z,63.16
2023-03-18T03:30:26.428Z,63.04
2023-03-18T03:32:53.532Z,62.74
2023-03-18T03:35:21.279Z,62.65
2023-03-18T03:37:48.870Z,62.89
2023-03-18T03:40:18.842Z,62.71
2023-03-18T03:42:46.333Z,62.93
2023-03-18T03:45:16.545Z,62.86
2023-03-18T03:47:46.389Z,62.62
2023-03-18T03:50:14.606Z,62.44
2023-03-18T03:52:42.929Z,62.26
2023-03-18T03:55:14.297Z,62.44
2023-03-18T03:57:42.023Z,62.27
2023-03-18T04:00:15.720Z,61.93
2023-03-18T04:02:49.361Z,61.79
2023-03-18T04:05:18.893Z,61.86
2023-03-18T04:07:47.633Z,62.15
2023-03-18T04:10:18.308Z,61.93
2023-03-18T04:12:48.895Z,61.35
2023-03-18T04:15:17.737Z,61.75
2023-03-18T04:17:45.890Z,61.43
2023-03-18T04:20:17.511Z,61.31
2023-03-18T04:22:45.342Z,61.36
2023-03-18T04:25:15.137Z,61.36
2023-03-18T04:27:42.916Z,61.29
2023-03-18T04:30:13.826Z,61.34
2023-03-18T04:33:06.731Z,61.44
2023-03-18T04:35:35.035Z,61.57
2023-03-18T04:38:02.632Z,61.36
2023-03-18T04:40:30.041Z,61.31
2023-03-18T04:42:57.724Z,61.82
2023-03-18T04:45:26.154Z,61.16
2023-03-18T04:47:55.340Z,61.39
2023-03-18T04:50:24.308Z,61.54
2023-03-18T04:52:51.758Z,61.33
2023-03-18T04:55:23.061Z,61.27
2023-03-18T04:57:51.300Z,61.33
2023-03-18T05:00:24.079Z,61.01
2023-03-18T05:02:55.945Z,61.30
2023-03-18T05:05:25.697Z,61.17
2023-03-18T05:07:53.069Z,61.13
2023-03-18T05:10:20.989Z,61.09
2023-03-18T05:12:48.854Z,60.85
2023-03-18T05:15:18.625Z,61.04
2023-03-18T05:17:50.088Z,61.26
2023-03-18T05:20:18.821Z,61.25
2023-03-18T05:22:47.101Z,61.11
2023-03-18T05:25:20.444Z,60.93
2023-03-18T05:27:49.725Z,60.96
2023-03-18T05:30:24.326Z,61.28
2023-03-18T05:32:54.093Z,60.63
2023-03-18T05:35:27.667Z,60.45
2023-03-18T05:37:55.524Z,60.62
2023-03-18T05:40:24.307Z,60.11
2023-03-18T05:43:02.016Z,59.99
2023-03-18T05:45:36.738Z,59.70
2023-03-18T05:48:08.646Z,59.86
2023-03-18T05:50:42.715Z,59.42
2023-03-18T05:53:12.163Z,59.40
2023-03-18T05:55:42.468Z,59.34
2023-03-18T05:58:09.866Z,59.24
2023-03-18T06:00:38.794Z,59.13
2023-03-18T06:03:06.276Z,59.13
2023-03-18T06:05:34.827Z,59.27
2023-03-18T06:08:03.123Z,58.76
2023-03-18T06:10:30.518Z,58.54
2023-03-18T06:12:58.155Z,58.57
2023-03-18T06:15:25.945Z,58.27
2023-03-18T06:17:53.252Z,58.30
2023-03-18T06:20:20.627Z,58.40
2023-03-18T06:22:51.846Z,57.91
2023-03-18T06:25:21.824Z,57.89
2023-03-18T06:27:49.785Z,58.00
2023-03-18T06:30:19.429Z,57.87
2023-03-18T06:32:47.425Z,57.77
2023-03-18T06:35:17.369Z,57.85
2023-03-18T06:37:45.500Z,57.64
2023-03-18T06:40:13.062Z,57.75
2023-03-18T06:42:41.957Z,57.46
2023-03-18T06:45:13.921Z,57.56
2023-03-18T06:47:46.936Z,57.39
2023-03-18T06:50:14.350Z,57.15
2023-03-18T06:52:42.640Z,56.73
2023-03-18T06:55:12.125Z,57.22
2023-03-18T06:57:41.729Z,56.96
2023-03-18T07:00:10.662Z,56.49
2023-03-18T07:02:39.629Z,56.27
2023-03-18T07:05:08.418Z,56.13
2023-03-18T07:07:37.936Z,56.09
2023-03-18T07:10:08.277Z,55.59
2023-03-18T07:12:36.170Z,55.56
2023-03-18T07:15:05.094Z,55.31
2023-03-18T07:17:32.515Z,55.26
2023-03-18T07:20:00.012Z,55.14
2023-03-18T07:22:27.228Z,54.70
2023-03-18T07:24:55.139Z,54.32
2023-03-18T07:27:26.781Z,54.15
2023-03-18T07:29:55.791Z,54.10
2023-03-18T07:32:23.768Z,54.31
2023-03-18T07:34:50.670Z,54.60
2023-03-18T07:37:17.736Z,54.19
2023-03-18T07:39:44.935Z,53.97
2023-03-18T07:42:12.447Z,54.45
2023-03-18T07:44:45.386Z,53.68
2023-03-18T07:47:14.903Z,54.08
2023-03-18T07:49:42.132Z,54.05
2023-03-18T07:52:10.637Z,53.58
2023-03-18T07:54:37.682Z,53.35
2023-03-18T07:57:05.401Z,53.41
2023-03-18T07:59:33.078Z,52.61
2023-03-18T08:02:00.130Z,52.58
2023-03-18T08:04:27.405Z,52.68
2023-03-18T08:06:55.372Z,52.75
2023-03-18T08:09:22.681Z,52.85
2023-03-18T08:11:49.805Z,52.66
2023-03-18T08:14:16.886Z,52.10
2023-03-18T08:16:44.066Z,52.35
2023-03-18T08:19:11.260Z,52.12
2023-03-18T08:21:39.758Z,52.42
2023-03-18T08:24:07.459Z,52.46
2023-03-18T08:26:35.741Z,52.51
2023-03-18T08:29:03.222Z,52.66
2023-03-18T08:31:30.447Z,51.59
2023-03-18T08:33:59.537Z,51.09
2023-03-18T08:36:28.962Z,50.52
2023-03-18T08:38:56.756Z,50.87
2023-03-18T08:41:25.896Z,50.87
2023-03-18T08:43:55.578Z,50.49
2023-03-18T08:46:22.926Z,50.24
2023-03-18T08:48:50.018Z,49.97
2023-03-18T08:51:17.295Z,49.58
2023-03-18T08:53:44.732Z,49.19
2023-03-18T08:56:13.166Z,48.95
2023-03-18T08:58:40.116Z,49.21
2023-03-18T09:01:10.090Z,49.10
2023-03-18T09:03:38.738Z,48.31
2023-03-18T09:06:06.051Z,48.71
2023-03-18T09:08:33.861Z,48.96
2023-03-18T09:11:01.080Z,48.72
2023-03-18T09:13:28.048Z,48.09
2023-03-18T09:15:55.077Z,48.11
2023-03-18T09:18:23.100Z,47.31
2023-03-18T09:20:50.506Z,47.40
2023-03-18T09:23:18.591Z,47.82
2023-03-18T09:25:50.454Z,47.18
2023-03-18T09:28:18.024Z,46.79
2023-03-18T09:30:45.210Z,47.08
2023-03-18T09:33:12.371Z,46.62
2023-03-18T09:35:40.353Z,45.85
2023-03-18T09:38:07.609Z,46.37
2023-03-18T09:40:38.622Z,46.70
2023-03-18T09:43:32.874Z,46.70
2023-03-18T09:46:05.786Z,46.55
2023-03-18T09:49:07.813Z,46.27
2023-03-18T09:51:35.359Z,46.31
2023-03-18T09:54:09.711Z,45.78
2023-03-18T09:56:39.264Z,45.97
2023-03-18T09:59:15.165Z,45.63
2023-03-18T10:01:43.245Z,45.41
2023-03-18T10:04:23.375Z,45.35
2023-03-18T10:06:58.390Z,44.96
2023-03-18T10:09:28.567Z,45.49
2023-03-18T10:12:12.550Z,45.20
2023-03-18T10:14:46.714Z,44.63
2023-03-18T10:17:22.677Z,44.65
2023-03-18T10:19:58.018Z,44.52
2023-03-18T10:22:44.284Z,44.21
2023-03-18T10:25:14.038Z,44.21
2023-03-18T10:27:42.480Z,42.72
2023-03-18T10:30:36.481Z,43.32
2023-03-18T10:33:17.823Z,43.20
2023-03-18T10:36:18.257Z,43.12
2023-03-18T10:38:49.516Z,41.97
2023-03-18T10:41:30.292Z,41.62
2023-03-18T10:43:57.986Z,40.95
2023-03-18T10:46:27.323Z,41.26
2023-03-18T10:49:14.806Z,40.75
2023-03-18T10:52:06.137Z,40.63
2023-03-18T10:54:41.774Z,40.29
2023-03-18T10:57:14.754Z,40.59
2023-03-18T10:59:45.691Z,40.41
2023-03-18T11:02:28.316Z,39.97
2023-03-18T11:05:04.764Z,40.01
2023-03-18T11:07:32.904Z,39.36
2023-03-18T11:10:18.266Z,38.98
2023-03-18T11:12:45.517Z,39.22
2023-03-18T11:15:13.773Z,40.24
2023-03-18T11:17:41.063Z,39.78
2023-03-18T11:20:33.717Z,39.51
2023-03-18T11:23:13.124Z,39.18
2023-03-18T11:25:40.759Z,39.31
2023-03-18T11:28:34.809Z,38.72
2023-03-18T11:31:06.713Z,38.76
2023-03-18T11:33:35.351Z,38.58
2023-03-18T11:36:09.847Z,38.33
2023-03-18T11:38:37.552Z,38.92
2023-03-18T11:41:19.760Z,38.97
2023-03-18T11:44:00.269Z,38.71
2023-03-18T11:46:36.459Z,38.82
2023-03-18T11:49:04.243Z,38.58
2023-03-18T11:52:00.177Z,38.97
2023-03-18T11:55:01.651Z,39.36
2023-03-18T11:57:57.831Z,39.75
2023-03-18T12:00:37.117Z,40.07
2023-03-18T12:03:28.698Z,39.95
2023-03-18T12:06:05.997Z,39.99
2023-03-18T12:09:10.868Z,40.45
2023-03-18T12:11:38.752Z,40.71
2023-03-18T12:14:18.390Z,40.69
2023-03-18T12:16:48.927Z,40.76
2023-03-18T12:19:45.195Z,40.16
2023-03-18T12:22:24.320Z,40.29
2023-03-18T12:24:57.761Z,39.09
2023-03-18T12:27:37.272Z,39.26
2023-03-18T12:30:27.158Z,37.91
2023-03-18T12:33:11.272Z,38.26
2023-03-18T12:36:10.291Z,37.97
2023-03-18T12:39:26.576Z,37.36
2023-03-18T12:42:22.941Z,37.98
2023-03-18T12:44:59.024Z,37.21
2023-03-18T12:47:45.456Z,36.82
2023-03-18T12:50:43.246Z,36.27
2023-03-18T12:53:17.156Z,37.18
2023-03-18T12:55:52.084Z,36.74
2023-03-18T12:58:29.248Z,36.88
2023-03-18T13:01:10.692Z,36.81
2023-03-18T13:03:44.712Z,36.69
2023-03-18T13:06:23.496Z,36.55
2023-03-18T13:08:56.699Z,36.13
2023-03-18T13:11:51.972Z,36.87
2023-03-18T13:14:32.916Z,36.66
2023-03-18T13:17:01.588Z,35.65
2023-03-18T13:19:29.478Z,35.70
2023-03-18T13:22:33.596Z,35.97
2023-03-18T13:25:26.001Z,35.11
2023-03-18T13:28:11.333Z,35.21
2023-03-18T13:30:38.415Z,33.91
2023-03-18T13:33:11.093Z,33.97
2023-03-18T13:36:09.038Z,34.28
2023-03-18T13:38:44.000Z,34.35
2023-03-18T13:41:58.279Z,34.65
2023-03-18T13:44:38.107Z,33.69
2023-03-18T13:47:09.336Z,34.37
2023-03-18T13:49:39.556Z,34.09
2023-03-18T13:52:23.241Z,34.57
2023-03-18T13:54:50.576Z,35.20
2023-03-18T13:57:28.507Z,35.80
2023-03-18T14:00:33.273Z,36.21
2023-03-18T14:03:06.343Z,36.27
2023-03-18T14:05:40.576Z,36.45
2023-03-18T14:08:43.401Z,36.78
2023-03-18T14:11:37.578Z,37.00
2023-03-18T14:14:06.268Z,37.62
2023-03-18T14:16:38.850Z,38.48
2023-03-18T14:19:18.338Z,38.69
2023-03-18T14:21:55.006Z,38.42
2023-03-18T14:24:26.323Z,38.15
2023-03-18T14:27:05.136Z,38.33
2023-03-18T14:29:47.539Z,38.58
2023-03-18T14:32:35.794Z,39.01
2023-03-18T14:35:18.271Z,39.26
2023-03-18T14:38:09.445Z,39.57
2023-03-18T14:40:44.420Z,39.56
2023-03-18T14:43:20.437Z,39.30
2023-03-18T14:45:52.455Z,39.51
2023-03-18T14:48:34.733Z,39.96
2023-03-18T14:51:06.890Z,39.94
2023-03-18T14:54:04.590Z,39.90
2023-03-18T14:56:38.874Z,40.21
2023-03-18T14:59:06.438Z,40.28
2023-03-18T15:01:39.249Z,40.34
2023-03-18T15:04:11.664Z,40.31
2023-03-18T15:06:41.182Z,40.46
2023-03-18T15:09:19.546Z,40.83
2023-03-18T15:11:47.885Z,41.02
2023-03-18T15:14:30.121Z,41.28
2023-03-18T15:17:01.208Z,41.45
2023-03-18T15:19:29.657Z,41.66
2023-03-18T15:22:05.705Z,41.89
2023-03-18T15:24:33.542Z,41.69
2023-03-18T15:27:04.934Z,42.07
2023-03-18T15:29:36.457Z,42.33
2023-03-18T15:32:17.644Z,42.76
2023-03-18T15:34:51.549Z,42.89
2023-03-18T15:37:33.922Z,43.08
2023-03-18T15:40:26.256Z,43.17
2023-03-18T15:43:38.432Z,43.18
2023-03-18T15:46:39.095Z,43.48
2023-03-18T15:49:07.273Z,43.36
2023-03-18T15:51:47.923Z,43.26
2023-03-18T15:54:22.550Z,43.34
2023-03-18T15:56:50.249Z,43.22
2023-03-18T15:59:23.921Z,43.17
2023-03-18T16:01:50.879Z,42.97
2023-03-18T16:04:25.885Z,43.16
2023-03-18T16:06:54.318Z,43.32
2023-03-18T16:09:26.295Z,43.60
2023-03-18T16:11:54.566Z,43.69
2023-03-18T16:14:26.325Z,43.90
2023-03-18T16:16:53.371Z,44.13
2023-03-18T16:19:26.039Z,44.13
2023-03-18T16:21:53.677Z,44.30
2023-03-18T16:24:21.465Z,44.60
2023-03-18T16:26:48.837Z,44.81
2023-03-18T16:29:28.642Z,44.88
2023-03-18T16:31:55.996Z,45.11
2023-03-18T16:34:23.409Z,45.33
2023-03-18T16:36:52.156Z,45.55
2023-03-18T16:39:34.283Z,45.87
2023-03-18T16:42:03.396Z,46.22
2023-03-18T16:44:31.388Z,46.55
2023-03-18T16:46:58.620Z,46.68
2023-03-18T16:49:27.242Z,46.92
2023-03-18T16:51:54.865Z,47.11
2023-03-18T16:54:27.460Z,47.37
2023-03-18T16:56:58.046Z,47.48
2023-03-18T16:59:30.666Z,47.61
2023-03-18T17:01:57.724Z,47.90
2023-03-18T17:04:31.335Z,48.07
2023-03-18T17:07:00.381Z,48.18
2023-03-18T17:09:28.113Z,48.50
2023-03-18T17:12:04.010Z,48.74
2023-03-18T17:14:38.786Z,49.01
2023-03-18T17:17:22.580Z,49.14
2023-03-18T17:19:49.569Z,49.40
2023-03-18T17:22:25.899Z,49.64
2023-03-18T17:24:52.944Z,49.81
2023-03-18T17:27:26.801Z,49.97
2023-03-18T17:29:53.870Z,50.12
2023-03-18T17:32:22.487Z,50.31
2023-03-18T17:34:51.484Z,50.54
2023-03-18T17:37:20.334Z,50.76
2023-03-18T17:39:47.453Z,50.92
2023-03-18T17:42:33.412Z,51.16
2023-03-18T17:45:07.384Z,51.39
2023-03-18T17:47:34.997Z,51.60
2023-03-18T17:50:03.944Z,51.71
2023-03-18T17:52:34.036Z,51.94
2023-03-18T17:55:01.225Z,52.05
2023-03-18T17:57:28.369Z,52.41
2023-03-18T17:59:55.479Z,52.68
2023-03-18T18:02:22.714Z,52.79
2023-03-18T18:04:49.652Z,52.88
2023-03-18T18:07:19.768Z,52.90
2023-03-18T18:09:47.678Z,53.22
2023-03-18T18:12:20.179Z,53.28
2023-03-18T18:14:47.636Z,53.26
2023-03-18T18:17:16.272Z,53.68
2023-03-18T18:19:44.356Z,53.91
2023-03-18T18:22:21.126Z,53.95
2023-03-18T18:24:48.986Z,53.82
2023-03-18T18:27:16.687Z,54.07
2023-03-18T18:29:45.826Z,54.18
2023-03-18T18:32:15.795Z,54.27
2023-03-18T18:34:42.908Z,54.32
2023-03-18T18:37:09.954Z,54.43
2023-03-18T18:39:37.063Z,54.68
2023-03-18T18:42:04.819Z,54.68
2023-03-18T18:44:31.987Z,54.69
2023-03-18T18:46:59.590Z,54.85
2023-03-18T18:49:27.323Z,55.09
2023-03-18T18:51:56.426Z,55.23
2023-03-18T18:54:24.743Z,55.30
2023-03-18T18:56:52.529Z,55.33
2023-03-18T18:59:33.968Z,55.47
2023-03-18T19:02:01.240Z,55.74
2023-03-18T19:04:29.344Z,55.67
2023-03-18T19:06:58.113Z,55.75
2023-03-18T19:09:26.346Z,55.80
2023-03-18T19:11:56.613Z,56.03
2023-03-18T19:14:30.938Z,55.86
2023-03-18T19:16:59.006Z,56.13
2023-03-18T19:19:29.660Z,56.19
2023-03-18T19:21:58.092Z,56.20
2023-03-18T19:24:27.591Z,56.31
2023-03-18T19:26:57.165Z,56.35
2023-03-18T19:29:27.340Z,56.35
2023-03-18T19:31:55.705Z,56.40
2023-03-18T19:34:23.765Z,56.38
2023-03-18T19:36:53.763Z,56.40
2023-03-18T19:39:22.853Z,56.38
2023-03-18T19:41:51.481Z,56.47
2023-03-18T19:44:25.992Z,56.52
2023-03-18T19:46:59.923Z,56.54
2023-03-18T19:49:35.407Z,56.45
2023-03-18T19:52:22.735Z,56.50
2023-03-18T19:54:51.121Z,56.78
2023-03-18T19:57:24.056Z,56.88
2023-03-18T19:59:53.672Z,57.11
2023-03-18T20:02:24.414Z,57.05
2023-03-18T20:04:54.477Z,57.07
2023-03-18T20:07:23.710Z,57.19
2023-03-18T20:09:51.462Z,57.22
2023-03-18T20:12:28.996Z,57.34
2023-03-18T20:14:56.404Z,57.43
2023-03-18T20:17:23.559Z,57.43
2023-03-18T20:19:51.801Z,57.35
2023-03-18T20:22:43.622Z,57.51
2023-03-18T20:25:19.165Z,57.60
2023-03-18T20:27:46.388Z,57.61
2023-03-18T20:30:22.599Z,57.66
2023-03-18T20:32:49.728Z,57.68
2023-03-18T20:35:17.239Z,57.76
2023-03-18T20:37:46.246Z,57.84
2023-03-18T20:40:22.040Z,57.80
2023-03-18T20:42:50.063Z,57.70
2023-03-18T20:45:17.782Z,57.78
2023-03-18T20:47:46.550Z,57.81
2023-03-18T20:50:15.949Z,57.86
2023-03-18T20:52:44.647Z,57.94
2023-03-18T20:55:20.032Z,57.94
2023-03-18T20:57:48.675Z,57.95
2023-03-18T21:00:23.132Z,57.99
2023-03-18T21:02:53.631Z,57.91
2023-03-18T21:05:21.841Z,57.97
2023-03-18T21:07:49.062Z,57.85
2023-03-18T21:10:19.955Z,57.90
2023-03-18T21:12:47.660Z,57.83
2023-03-18T21:15:21.588Z,57.84
2023-03-18T21:17:50.266Z,58.03
2023-03-18T21:20:26.598Z,58.03
2023-03-18T21:22:55.217Z,58.08
2023-03-18T21:25:25.135Z,57.99
2023-03-18T21:27:52.646Z,58.05
2023-03-18T21:30:22.212Z,58.00
2023-03-18T21:32:51.202Z,58.02
2023-03-18T21:35:29.077Z,58.21
2023-03-18T21:37:56.376Z,58.12
2023-03-18T21:40:25.160Z,57.96
2023-03-18T21:42:52.569Z,57.99
2023-03-18T21:45:23.859Z,58.09
2023-03-18T21:47:52.751Z,57.87
2023-03-18T21:50:22.728Z,57.84
2023-03-18T21:52:50.503Z,57.85
2023-03-18T21:55:17.605Z,57.75
2023-03-18T21:57:46.918Z,57.56
2023-03-18T22:00:20.763Z,57.43
2023-03-18T22:02:48.952Z,57.33
2023-03-18T22:05:23.165Z,57.08
2023-03-18T22:07:51.847Z,56.78
2023-03-18T22:10:23.843Z,56.40
2023-03-18T22:12:51.559Z,56.44
2023-03-18T22:15:25.104Z,56.44
2023-03-18T22:17:52.570Z,56.30
2023-03-18T22:20:19.677Z,56.08
2023-03-18T22:22:47.678Z,55.92
2023-03-18T22:25:34.108Z,55.68
2023-03-18T22:28:02.121Z,55.78
2023-03-18T22:30:32.151Z,55.81
2023-03-18T22:33:01.421Z,55.54
2023-03-18T22:35:29.953Z,55.21
2023-03-18T22:37:57.200Z,55.14
2023-03-18T22:40:40.725Z,55.43
2023-03-18T22:43:28.909Z,54.45
2023-03-18T22:45:56.986Z,54.71
2023-03-18T22:48:24.640Z,54.32
2023-03-18T22:50:53.814Z,54.27
2023-03-18T22:53:27.753Z,54.28
2023-03-18T22:55:56.659Z,54.39
2023-03-18T22:58:27.205Z,54.34
2023-03-18T23:00:56.136Z,54.77
2023-03-18T23:03:28.891Z,55.07
2023-03-18T23:05:58.732Z,55.08
2023-03-18T23:08:25.801Z,54.80
2023-03-18T23:10:54.494Z,54.70
2023-03-18T23:13:34.694Z,54.76
2023-03-18T23:16:04.432Z,54.17
2023-03-18T23:18:31.808Z,53.91
2023-03-18T23:20:59.521Z,53.78
2023-03-18T23:23:28.421Z,54.16
2023-03-18T23:25:56.190Z,54.07
2023-03-18T23:28:23.803Z,53.18
2023-03-18T23:30:52.896Z,53.16
2023-03-18T23:33:20.115Z,53.31
2023-03-18T23:35:48.373Z,53.15
2023-03-18T23:38:16.333Z,53.00
2023-03-18T23:40:43.300Z,53.15
2023-03-18T23:43:10.807Z,53.05
2023-03-18T23:45:39.160Z,52.96
2023-03-18T23:48:07.088Z,52.84
2023-03-18T23:50:34.256Z,52.87
2023-03-18T23:53:01.501Z,52.86
2023-03-18T23:55:34.853Z,53.01
2023-03-18T23:58:12.612Z,53.39
